Flight Track Log - Related Links

Times and Time Zones

All times are in EDT time to prevent confusion due to time zone crossing. See the AAL667 flight status page for this flight to view local times or setup timezone preferences in your user account.

Time Position Orientation Groundspeed Altitude Reporting Facility
EDT Latitude Longitude Course Direction KTS MPH feet Rate Location/Type
Fri 07:29:12 PM 39.7000 -86.3333 252° West 182 209 1,700  Level Indianapolis TRACON
Fri 07:30:46 PM 39.6608 -86.4156 238° Southwest 210 242 4,900 2,168 Climbing Indianapolis Center
Fri 07:31:00 PM 39.6207 -86.6467 256° West  Level FlightAware Approximate
Fri 07:31:47 PM 39.6439 -86.5069 256° West 250 288 7,300  Level Indianapolis Center
Fri 07:32:00 PM 39.5960 -86.7706 256° West  Level FlightAware Approximate
Fri 07:32:49 PM 39.6231 -86.6053 255° West 272 313 10,400  Level Indianapolis Center
Fri 07:33:00 PM 39.5711 -86.8945 255° West  Level FlightAware Approximate
Fri 07:33:51 PM 39.5997 -86.7203 255° West 326 375 11,900  Level Indianapolis Center
Fri 07:34:00 PM 39.5345 -87.0121 252° West  Level FlightAware Approximate
Fri 07:34:52 PM 39.5736 -86.8494 255° West 360 414 14,500  Level Indianapolis Center
Fri 07:35:54 PM 39.5489 -87.0036 258° West 370 426 17,700 2,293 Climbing Indianapolis Center
Fri 07:36:55 PM 39.5236 -87.1367 256° West 376 433 19,200 1,805 Climbing Indianapolis Center
Fri 07:37:57 PM 39.4992 -87.2761 257° West 389 448 21,400 2,081 Climbing Indianapolis Center
Fri 07:38:59 PM 39.4733 -87.4133 256° West 391 450 23,500 1,854 Climbing Indianapolis Center
Fri 07:40:00 PM 39.4478 -87.5511 257° West 391 450 25,200 1,610 Climbing Indianapolis Center
Fri 07:41:02 PM 39.4219 -87.6900 257° West 394 453 26,800 1,854 Climbing Indianapolis Center
Fri 07:42:03 PM 39.3961 -87.8269 256° West 391 450 29,000 1,561 Climbing Indianapolis Center
Fri 07:43:05 PM 39.3711 -87.9586 256° West 377 434 30,000 484 Climbing Indianapolis Center
Fri 07:44:07 PM 39.3422 -88.1083 256° West 388 447 30,000  Level Indianapolis Center
Fri 07:45:08 PM 39.3164 -88.2447 256° West 391 450 30,000  Level Indianapolis Center
Fri 07:46:10 PM 39.2894 -88.3803 256° West 390 449 30,000  Level Indianapolis Center
Fri 07:47:11 PM 39.2647 -88.5147 257° West 386 444 30,000  Level Indianapolis Center
Fri 07:48:13 PM 39.2372 -88.6486 255° West 386 444 30,000  Level Indianapolis Center
Fri 07:49:15 PM 39.2114 -88.7825 256° West 383 441 30,000  Level Indianapolis Center
Fri 07:50:16 PM 39.1844 -88.9150 255° West 383 441 30,000  Level Indianapolis Center
Fri 07:51:18 PM 39.1531 -89.0747 256° West 383 441 30,000  Level Indianapolis Center
Fri 07:52:19 PM 39.1256 -89.2094 255° West 387 445 30,000  Level Indianapolis Center
Fri 07:53:21 PM 39.0989 -89.3439 256° West 387 445 30,000  Level Indianapolis Center
Fri 07:54:35 PM 39.0639 -89.5111 255° West 385 443 30,000 391 Level Kansas City Center
Fri 07:55:39 PM 39.0369 -89.6439 255° West 386 444 30,900 960 Climbing Kansas City Center
Fri 07:56:40 PM 39.0083 -89.7850 255° West 382 440 32,000 893 Climbing Kansas City Center
Fri 07:57:40 PM 38.9806 -89.9147 255° West 379 436 32,700 677 Climbing Kansas City Center
Fri 07:58:44 PM 38.9533 -90.0481 255° West 377 434 33,400 624 Climbing Kansas City Center
Fri 07:59:45 PM 38.9283 -90.1669 255° West 373 429 34,000 295 Climbing Kansas City Center
Fri 08:00:46 PM 38.9022 -90.2967 256° West 372 428 34,000  Level Kansas City Center
Fri 08:01:47 PM 38.8753 -90.4283 255° West 377 434 34,000  Level Kansas City Center
Fri 08:02:48 PM 38.8064 -90.5606 236° Southwest 363 418 34,000  Level Kansas City Center
Fri 08:03:52 PM 38.7361 -90.6653 229° Southwest 376 433 34,000  Level Kansas City Center
Fri 08:04:52 PM 38.6661 -90.7678 229° Southwest 389 448 34,000  Level Kansas City Center
Fri 08:05:54 PM 38.5956 -90.8706 229° Southwest 389 448 34,000  Level Kansas City Center
Fri 08:06:54 PM 38.5250 -90.9728 229° Southwest 388 447 34,000  Level Kansas City Center
Fri 08:07:57 PM 38.4550 -91.0756 229° Southwest 388 447 34,000  Level Kansas City Center
Fri 08:08:58 PM 38.3844 -91.1761 228° Southwest 385 443 34,000  Level Kansas City Center
Fri 08:10:02 PM 38.3000 -91.2967 228° Southwest 382 440 34,000  Level Kansas City Center
Fri 08:11:02 PM 38.2300 -91.3953 228° Southwest 378 435 34,000  Level Kansas City Center
Fri 08:12:03 PM 38.1664 -91.4867 228° Southwest 386 444 34,000  Level Kansas City Center
Fri 08:13:04 PM 38.0803 -91.6106 229° Southwest 388 447 34,000  Level Kansas City Center
Fri 08:14:08 PM 38.0069 -91.7133 228° Southwest 390 449 34,000  Level Kansas City Center
Fri 08:15:09 PM 37.9331 -91.8178 228° Southwest 391 450 34,000  Level Kansas City Center
Fri 08:16:10 PM 37.8600 -91.9225 229° Southwest 391 450 34,000  Level Kansas City Center
Fri 08:17:10 PM 37.7864 -92.0253 228° Southwest 388 447 34,000  Level Kansas City Center
Fri 08:18:12 PM 37.7092 -92.1350 228° Southwest 394 453 34,000  Level Kansas City Center
Fri 08:19:15 PM 37.6350 -92.2386 228° Southwest 401 461 34,000  Level Kansas City Center
Fri 08:20:16 PM 37.5594 -92.3444 228° Southwest 402 463 34,000  Level Kansas City Center
Fri 08:21:19 PM 37.4844 -92.4497 228° Southwest 401 461 34,000  Level Kansas City Center
Fri 08:22:20 PM 37.4094 -92.5528 228° Southwest 399 459 34,000  Level Kansas City Center
Fri 08:23:21 PM 37.3344 -92.6567 228° Southwest 398 458 34,000  Level Kansas City Center
Fri 08:24:22 PM 37.2586 -92.7586 227° Southwest 397 457 34,000  Level Kansas City Center
Fri 08:25:26 PM 37.1786 -92.8561 224° Southwest 399 459 34,000  Level Kansas City Center
Fri 08:26:27 PM 37.0667 -92.9525 215° Southwest 404 465 34,000  Level Kansas City Center
Fri 08:27:28 PM 36.9706 -93.0272 212° Southwest 405 466 34,000  Level Kansas City Center
Fri 08:28:29 PM 36.8753 -93.1025 212° Southwest 403 464 34,000  Level Kansas City Center
Fri 08:29:29 PM 36.7800 -93.1783 213° Southwest 404 465 34,000  Level Kansas City Center
Fri 08:30:33 PM 36.6878 -93.2600 215° Southwest 410 472 34,000  Level Memphis Center
Fri 08:31:33 PM 36.5942 -93.3369 213° Southwest 410 472 34,000  Level Memphis Center
Fri 08:32:33 PM 36.4839 -93.4181 211° Southwest 417 480 34,000  Level Memphis Center
Fri 08:33:33 PM 36.4008 -93.4844 213° Southwest 417 480 34,000  Level Memphis Center
Fri 08:34:33 PM 36.3075 -93.5556 212° Southwest 417 480 34,000  Level Memphis Center
Fri 08:35:33 PM 36.2136 -93.6317 213° Southwest 417 480 34,000  Level Memphis Center
Fri 08:36:33 PM 36.1200 -93.7050 212° Southwest 410 472 34,000  Level Memphis Center
Fri 08:37:33 PM 36.0242 -93.7806 213° Southwest 410 472 34,000  Level Memphis Center
Fri 08:38:33 PM 35.9303 -93.8536 212° Southwest 410 472 34,000  Level Memphis Center
Fri 08:39:33 PM 35.8344 -93.9264 212° Southwest 410 472 34,000  Level Memphis Center
Fri 08:40:33 PM 35.7406 -94.0017 213° Southwest 410 472 34,000  Level Memphis Center
Fri 08:41:33 PM 35.6508 -94.0717 212° Southwest 416 479 34,000  Level Memphis Center
Fri 08:42:33 PM 35.5528 -94.1464 212° Southwest 410 472 34,000  Level Memphis Center
Fri 08:43:33 PM 35.4586 -94.2186 212° Southwest 410 472 34,000  Level Memphis Center
Fri 08:44:33 PM 35.3625 -94.2956 213° Southwest 410 472 34,000  Level Memphis Center
Fri 08:45:33 PM 35.2825 -94.3836 222° Southwest 404 465 34,000  Level Memphis Center
Fri 08:47:18 PM 35.1397 -94.5422 222° Southwest 389 448 34,000  Level Fort Worth Center
Fri 08:48:19 PM 35.0606 -94.6311 223° Southwest 389 448 34,000  Level Fort Worth Center
Fri 08:49:18 PM 34.9789 -94.7200 222° Southwest 389 448 34,000  Level Fort Worth Center
Fri 08:50:18 PM 34.8953 -94.8111 222° Southwest 389 448 34,000  Level Fort Worth Center
Fri 08:51:18 PM 34.8158 -94.8969 222° Southwest 389 448 34,000 -500 Level Fort Worth Center
Fri 08:52:18 PM 34.7319 -94.9881 222° Southwest 395 455 33,000 -1,350 Descending Fort Worth Center
Fri 08:53:18 PM 34.6503 -95.0736 221° Southwest 395 455 31,300 -1,700 Descending Fort Worth Center
Fri 08:54:18 PM 34.5664 -95.1592 220° Southwest 395 455 29,600 -1,700 Descending Fort Worth Center
Fri 08:55:18 PM 34.4864 -95.2469 222° Southwest 401 461 27,900 -1,800 Descending Fort Worth Center
Fri 08:56:18 PM 34.4003 -95.3344 220° Southwest 401 461 26,000 -1,900 Descending Fort Worth Center
Fri 08:57:18 PM 34.3183 -95.4219 221° Southwest 401 461 24,100 -1,000 Descending Fort Worth Center
Fri 08:58:18 PM 34.2342 -95.5144 222° Southwest 401 461 24,000 -50 Descending Fort Worth Center
Fri 08:59:18 PM 34.1394 -95.6067 219° Southwest 401 461 24,000  Level Fort Worth Center
Fri 09:00:19 PM 34.0697 -95.6833 222° Southwest 392 451 24,000  Level Fort Worth Center
Fri 09:01:18 PM 33.9894 -95.7703 222° Southwest 387 445 24,000 -605 Level Fort Worth Center
Fri 09:02:18 PM 33.9069 -95.8544 220° Southwest 387 445 22,800 -1,934 Descending Fort Worth Center
Fri 09:03:19 PM 33.8206 -95.9433 221° Southwest 382 440 20,100 -2,100 Descending Fort Worth Center
Fri 09:04:18 PM 33.7544 -96.0094 220° Southwest 363 418 18,600 -1,815 Descending Fort Worth Center
Fri 09:05:18 PM 33.6800 -96.0881 221° Southwest 338 389 16,500 -1,983 Descending Fort Worth Center
Fri 09:06:19 PM 33.6222 -96.1486 221° Southwest 329 379 14,600 -1,650 Descending Fort Worth Center
Fri 09:07:18 PM 33.5500 -96.2219 220° Southwest 322 371 13,200 -1,361 Descending Fort Worth Center
Fri 09:08:18 PM 33.5025 -96.2775 224° Southwest 286 329 11,900 -1,091 Descending Fort Worth Center
Fri 09:09:19 PM 33.4447 -96.3481 226° Southwest 273 314 11,000 -1,000 Descending Fort Worth Center
Fri 09:10:18 PM 33.3972 -96.4033 224° Southwest 273 314 9,900 -1,462 Descending Fort Worth Center
Fri 09:11:18 PM 33.3392 -96.4736 225° Southwest 273 314 8,100 -1,400 Descending Fort Worth Center
Fri 09:12:18 PM 33.2936 -96.5261 224° Southwest 273 314 7,100 -1,150 Descending Fort Worth Center
Fri 09:13:18 PM 33.2753 -96.6033 254° West 246 283 5,800 -1,050 Descending Fort Worth Center
Fri 09:14:18 PM 33.2717 -96.6953 267° West 246 283 5,000 -397 Descending Fort Worth Center
Fri 09:15:19 PM 33.2722 -96.7650 271° West 246 283 5,000  Level Fort Worth Center
Fri 09:16:18 PM 33.2747 -96.8419 272° West 220 253 5,000  Level Fort Worth Center
Fri 09:17:18 PM 33.2686 -96.9042 263° West 213 245 5,000  Level Fort Worth Center
Fri 09:18:18 PM 33.2458 -96.9714 248° West 208 239 5,000  Level Fort Worth Center
Fri 09:19:18 PM 33.2022 -96.9914 201° Southwest 191 220 5,000  Level Fort Worth Center
Fri 09:20:18 PM 33.1583 -97.0089 198° South 163 188 5,000 -50 Level Fort Worth Center
Fri 09:21:19 PM 33.1208 -97.0092 180° South 158 182 4,900 -474 Descending Fort Worth Center
Fri 09:22:12 PM 33.0833 -97.0167 190° South 155 178 4,100 -906 Descending Dallas / Fort Worth TRACON

Login

Don't have an account? Register now (free) for customized features, flight alerts, and more!